sensor_id;sensor_type;location;lat;lon;timestamp;P1;durP1;ratioP1;P2;durP2;ratioP2
12177;SDS011;6152;48.728;9.256;2023-11-19T00:00:22;2.30;;;2.10;;
12177;SDS011;6152;48.728;9.256;2023-11-19T00:02:48;2.47;;;2.20;;
12177;SDS011;6152;48.728;9.256;2023-11-19T00:05:14;2.42;;;2.20;;
12177;SDS011;6152;48.728;9.256;2023-11-19T00:07:40;2.53;;;2.33;;
12177;SDS011;6152;48.728;9.256;2023-11-19T00:10:10;2.45;;;2.25;;
12177;SDS011;6152;48.728;9.256;2023-11-19T00:12:42;2.35;;;1.98;;
12177;SDS011;6152;48.728;9.256;2023-11-19T00:15:09;2.08;;;1.92;;
12177;SDS011;6152;48.728;9.256;2023-11-19T00:17:41;2.80;;;2.05;;
12177;SDS011;6152;48.728;9.256;2023-11-19T00:20:19;1.80;;;1.70;;
12177;SDS011;6152;48.728;9.256;2023-11-19T00:22:48;2.03;;;1.88;;
12177;SDS011;6152;48.728;9.256;2023-11-19T00:25:18;2.15;;;1.95;;
12177;SDS011;6152;48.728;9.256;2023-11-19T00:27:46;4.05;;;1.98;;
12177;SDS011;6152;48.728;9.256;2023-11-19T00:30:13;2.00;;;1.80;;
12177;SDS011;6152;48.728;9.256;2023-11-19T00:32:40;2.58;;;1.52;;
12177;SDS011;6152;48.728;9.256;2023-11-19T00:35:07;3.13;;;1.95;;
12177;SDS011;6152;48.728;9.256;2023-11-19T00:37:35;1.70;;;1.60;;
12177;SDS011;6152;48.728;9.256;2023-11-19T00:40:01;1.98;;;1.88;;
12177;SDS011;6152;48.728;9.256;2023-11-19T00:42:30;4.35;;;2.00;;
12177;SDS011;6152;48.728;9.256;2023-11-19T00:44:56;5.07;;;2.03;;
12177;SDS011;6152;48.728;9.256;2023-11-19T00:47:23;2.00;;;1.75;;
12177;SDS011;6152;48.728;9.256;2023-11-19T00:49:49;2.42;;;2.10;;
12177;SDS011;6152;48.728;9.256;2023-11-19T00:52:15;2.17;;;1.98;;
12177;SDS011;6152;48.728;9.256;2023-11-19T00:54:42;2.30;;;1.97;;
12177;SDS011;6152;48.728;9.256;2023-11-19T00:57:08;2.00;;;1.70;;
12177;SDS011;6152;48.728;9.256;2023-11-19T00:59:35;2.80;;;2.30;;
12177;SDS011;6152;48.728;9.256;2023-11-19T01:02:01;2.20;;;2.00;;
12177;SDS011;6152;48.728;9.256;2023-11-19T01:04:34;1.87;;;1.77;;
12177;SDS011;6152;48.728;9.256;2023-11-19T01:07:02;2.30;;;2.10;;
12177;SDS011;6152;48.728;9.256;2023-11-19T01:09:31;2.47;;;2.10;;
12177;SDS011;6152;48.728;9.256;2023-11-19T01:11:59;2.30;;;2.10;;
12177;SDS011;6152;48.728;9.256;2023-11-19T01:14:29;2.15;;;1.92;;
12177;SDS011;6152;48.728;9.256;2023-11-19T01:16:55;2.37;;;2.13;;
12177;SDS011;6152;48.728;9.256;2023-11-19T01:19:22;1.87;;;1.63;;
12177;SDS011;6152;48.728;9.256;2023-11-19T01:21:49;3.07;;;2.20;;
12177;SDS011;6152;48.728;9.256;2023-11-19T01:24:16;1.93;;;1.60;;
12177;SDS011;6152;48.728;9.256;2023-11-19T01:26:43;2.58;;;1.60;;
12177;SDS011;6152;48.728;9.256;2023-11-19T01:29:13;2.30;;;1.63;;
12177;SDS011;6152;48.728;9.256;2023-11-19T01:31:40;2.13;;;1.90;;
12177;SDS011;6152;48.728;9.256;2023-11-19T01:34:07;2.20;;;2.00;;
12177;SDS011;6152;48.728;9.256;2023-11-19T01:36:34;1.63;;;1.37;;
12177;SDS011;6152;48.728;9.256;2023-11-19T01:39:00;1.60;;;1.50;;
12177;SDS011;6152;48.728;9.256;2023-11-19T01:41:26;2.17;;;1.60;;
12177;SDS011;6152;48.728;9.256;2023-11-19T01:43:52;1.95;;;1.63;;
12177;SDS011;6152;48.728;9.256;2023-11-19T01:46:19;1.73;;;1.63;;
12177;SDS011;6152;48.728;9.256;2023-11-19T01:48:45;3.13;;;1.88;;
12177;SDS011;6152;48.728;9.256;2023-11-19T01:51:12;2.53;;;1.60;;
12177;SDS011;6152;48.728;9.256;2023-11-19T01:53:41;1.83;;;1.70;;
12177;SDS011;6152;48.728;9.256;2023-11-19T01:56:08;1.73;;;1.60;;
12177;SDS011;6152;48.728;9.256;2023-11-19T01:58:37;1.73;;;1.40;;
12177;SDS011;6152;48.728;9.256;2023-11-19T02:01:05;1.45;;;1.35;;
12177;SDS011;6152;48.728;9.256;2023-11-19T02:03:32;1.73;;;1.27;;
12177;SDS011;6152;48.728;9.256;2023-11-19T02:05:59;1.70;;;1.60;;
12177;SDS011;6152;48.728;9.256;2023-11-19T02:08:25;3.30;;;1.40;;
12177;SDS011;6152;48.728;9.256;2023-11-19T02:10:52;1.00;;;1.00;;
12177;SDS011;6152;48.728;9.256;2023-11-19T02:13:21;1.57;;;1.23;;
12177;SDS011;6152;48.728;9.256;2023-11-19T02:15:49;1.58;;;1.20;;
12177;SDS011;6152;48.728;9.256;2023-11-19T02:18:18;1.70;;;1.00;;
12177;SDS011;6152;48.728;9.256;2023-11-19T02:20:46;0.88;;;0.88;;
12177;SDS011;6152;48.728;9.256;2023-11-19T02:23:14;0.90;;;0.90;;
12177;SDS011;6152;48.728;9.256;2023-11-19T02:25:41;1.00;;;0.90;;
12177;SDS011;6152;48.728;9.256;2023-11-19T02:28:12;1.58;;;0.70;;
12177;SDS011;6152;48.728;9.256;2023-11-19T02:30:39;0.85;;;0.57;;
12177;SDS011;6152;48.728;9.256;2023-11-19T02:33:06;0.70;;;0.70;;
12177;SDS011;6152;48.728;9.256;2023-11-19T02:35:32;0.75;;;0.65;;
12177;SDS011;6152;48.728;9.256;2023-11-19T02:37:58;0.40;;;0.40;;
12177;SDS011;6152;48.728;9.256;2023-11-19T02:40:34;0.65;;;0.45;;
12177;SDS011;6152;48.728;9.256;2023-11-19T02:43:00;0.40;;;0.40;;
12177;SDS011;6152;48.728;9.256;2023-11-19T02:45:27;0.65;;;0.40;;
12177;SDS011;6152;48.728;9.256;2023-11-19T02:47:56;0.43;;;0.43;;
12177;SDS011;6152;48.728;9.256;2023-11-19T02:50:22;0.30;;;0.30;;
12177;SDS011;6152;48.728;9.256;2023-11-19T02:52:52;0.35;;;0.32;;
12177;SDS011;6152;48.728;9.256;2023-11-19T02:55:21;0.90;;;0.30;;
12177;SDS011;6152;48.728;9.256;2023-11-19T02:57:48;0.50;;;0.25;;
12177;SDS011;6152;48.728;9.256;2023-11-19T03:00:15;0.30;;;0.30;;
12177;SDS011;6152;48.728;9.256;2023-11-19T03:02:43;0.10;;;0.10;;
12177;SDS011;6152;48.728;9.256;2023-11-19T03:05:14;0.10;;;0.10;;
12177;SDS011;6152;48.728;9.256;2023-11-19T03:07:42;0.20;;;0.20;;
12177;SDS011;6152;48.728;9.256;2023-11-19T03:10:09;0.40;;;0.17;;
12177;SDS011;6152;48.728;9.256;2023-11-19T03:12:43;0.32;;;0.17;;
12177;SDS011;6152;48.728;9.256;2023-11-19T03:15:10;0.50;;;0.30;;
12177;SDS011;6152;48.728;9.256;2023-11-19T03:17:40;0.40;;;0.20;;
12177;SDS011;6152;48.728;9.256;2023-11-19T03:20:08;0.25;;;0.17;;
12177;SDS011;6152;48.728;9.256;2023-11-19T03:22:38;0.10;;;0.10;;
12177;SDS011;6152;48.728;9.256;2023-11-19T03:25:06;0.35;;;0.30;;
12177;SDS011;6152;48.728;9.256;2023-11-19T03:27:36;0.60;;;0.30;;
12177;SDS011;6152;48.728;9.256;2023-11-19T03:30:09;0.40;;;0.40;;
12177;SDS011;6152;48.728;9.256;2023-11-19T03:32:36;2.53;;;0.70;;
12177;SDS011;6152;48.728;9.256;2023-11-19T03:35:03;0.50;;;0.20;;
12177;SDS011;6152;48.728;9.256;2023-11-19T03:37:32;0.50;;;0.20;;
12177;SDS011;6152;48.728;9.256;2023-11-19T03:39:58;1.38;;;0.20;;
12177;SDS011;6152;48.728;9.256;2023-11-19T03:42:28;1.00;;;0.30;;
12177;SDS011;6152;48.728;9.256;2023-11-19T03:44:57;0.30;;;0.30;;
12177;SDS011;6152;48.728;9.256;2023-11-19T03:47:24;1.67;;;0.20;;
12177;SDS011;6152;48.728;9.256;2023-11-19T03:49:50;0.50;;;0.10;;
12177;SDS011;6152;48.728;9.256;2023-11-19T03:52:17;0.10;;;0.10;;
12177;SDS011;6152;48.728;9.256;2023-11-19T03:54:44;0.10;;;0.10;;
12177;SDS011;6152;48.728;9.256;2023-11-19T03:57:14;0.95;;;0.10;;
12177;SDS011;6152;48.728;9.256;2023-11-19T03:59:43;0.63;;;0.10;;
12177;SDS011;6152;48.728;9.256;2023-11-19T04:02:09;0.15;;;0.13;;
12177;SDS011;6152;48.728;9.256;2023-11-19T04:04:35;0.98;;;0.10;;
12177;SDS011;6152;48.728;9.256;2023-11-19T04:07:03;0.70;;;0.30;;
12177;SDS011;6152;48.728;9.256;2023-11-19T04:09:30;0.45;;;0.20;;
12177;SDS011;6152;48.728;9.256;2023-11-19T04:12:02;0.10;;;0.10;;
12177;SDS011;6152;48.728;9.256;2023-11-19T04:14:29;0.80;;;0.20;;
12177;SDS011;6152;48.728;9.256;2023-11-19T04:16:55;2.17;;;0.10;;
12177;SDS011;6152;48.728;9.256;2023-11-19T04:19:21;0.10;;;0.10;;
12177;SDS011;6152;48.728;9.256;2023-11-19T04:21:47;0.45;;;0.10;;
12177;SDS011;6152;48.728;9.256;2023-11-19T04:24:13;0.35;;;0.10;;
12177;SDS011;6152;48.728;9.256;2023-11-19T04:26:43;0.13;;;0.10;;
12177;SDS011;6152;48.728;9.256;2023-11-19T04:29:14;0.17;;;0.10;;
12177;SDS011;6152;48.728;9.256;2023-11-19T04:31:44;0.30;;;0.10;;
12177;SDS011;6152;48.728;9.256;2023-11-19T04:34:11;0.10;;;0.10;;
12177;SDS011;6152;48.728;9.256;2023-11-19T04:36:37;0.10;;;0.10;;
12177;SDS011;6152;48.728;9.256;2023-11-19T04:39:04;0.63;;;0.10;;
12177;SDS011;6152;48.728;9.256;2023-11-19T04:41:49;0.10;;;0.10;;
12177;SDS011;6152;48.728;9.256;2023-11-19T04:44:19;1.00;;;0.10;;
12177;SDS011;6152;48.728;9.256;2023-11-19T04:46:45;0.13;;;0.10;;
12177;SDS011;6152;48.728;9.256;2023-11-19T04:49:12;0.10;;;0.10;;
12177;SDS011;6152;48.728;9.256;2023-11-19T04:51:40;0.00;;;0.00;;
12177;SDS011;6152;48.728;9.256;2023-11-19T04:54:07;0.05;;;0.00;;
12177;SDS011;6152;48.728;9.256;2023-11-19T04:56:34;0.00;;;0.00;;
12177;SDS011;6152;48.728;9.256;2023-11-19T04:59:04;0.10;;;0.10;;
12177;SDS011;6152;48.728;9.256;2023-11-19T05:01:31;0.20;;;0.10;;
12177;SDS011;6152;48.728;9.256;2023-11-19T05:03:57;1.00;;;0.00;;
12177;SDS011;6152;48.728;9.256;2023-11-19T05:06:25;0.00;;;0.00;;
12177;SDS011;6152;48.728;9.256;2023-11-19T05:08:53;0.00;;;0.00;;
12177;SDS011;6152;48.728;9.256;2023-11-19T05:11:19;0.40;;;0.10;;
12177;SDS011;6152;48.728;9.256;2023-11-19T05:13:45;0.30;;;0.10;;
12177;SDS011;6152;48.728;9.256;2023-11-19T05:16:12;0.00;;;0.00;;
12177;SDS011;6152;48.728;9.256;2023-11-19T05:18:41;0.65;;;0.10;;
12177;SDS011;6152;48.728;9.256;2023-11-19T05:21:07;0.00;;;0.00;;
12177;SDS011;6152;48.728;9.256;2023-11-19T05:23:33;0.00;;;0.00;;
12177;SDS011;6152;48.728;9.256;2023-11-19T05:26:02;0.05;;;0.05;;
12177;SDS011;6152;48.728;9.256;2023-11-19T05:28:29;0.10;;;0.10;;
12177;SDS011;6152;48.728;9.256;2023-11-19T05:30:55;0.00;;;0.00;;
12177;SDS011;6152;48.728;9.256;2023-11-19T05:33:21;0.95;;;0.08;;
12177;SDS011;6152;48.728;9.256;2023-11-19T05:35:48;0.10;;;0.00;;
12177;SDS011;6152;48.728;9.256;2023-11-19T05:38:14;0.17;;;0.03;;
12177;SDS011;6152;48.728;9.256;2023-11-19T05:40:40;0.00;;;0.00;;
12177;SDS011;6152;48.728;9.256;2023-11-19T05:43:07;0.15;;;0.05;;
12177;SDS011;6152;48.728;9.256;2023-11-19T05:45:33;0.00;;;0.00;;
12177;SDS011;6152;48.728;9.256;2023-11-19T05:47:59;0.08;;;0.00;;
12177;SDS011;6152;48.728;9.256;2023-11-19T05:50:25;0.00;;;0.00;;
12177;SDS011;6152;48.728;9.256;2023-11-19T05:52:51;0.00;;;0.00;;
12177;SDS011;6152;48.728;9.256;2023-11-19T05:55:18;0.00;;;0.00;;
12177;SDS011;6152;48.728;9.256;2023-11-19T05:57:44;0.85;;;0.00;;
12177;SDS011;6152;48.728;9.256;2023-11-19T06:00:11;0.00;;;0.00;;
12177;SDS011;6152;48.728;9.256;2023-11-19T06:02:38;0.00;;;0.00;;
12177;SDS011;6152;48.728;9.256;2023-11-19T06:05:04;0.03;;;0.03;;
12177;SDS011;6152;48.728;9.256;2023-11-19T06:07:34;0.20;;;0.08;;
12177;SDS011;6152;48.728;9.256;2023-11-19T06:10:01;0.00;;;0.00;;
12177;SDS011;6152;48.728;9.256;2023-11-19T06:12:30;0.38;;;0.17;;
12177;SDS011;6152;48.728;9.256;2023-11-19T06:14:58;1.05;;;0.00;;
12177;SDS011;6152;48.728;9.256;2023-11-19T06:17:25;0.00;;;0.00;;
12177;SDS011;6152;48.728;9.256;2023-11-19T06:19:51;0.00;;;0.00;;
12177;SDS011;6152;48.728;9.256;2023-11-19T06:22:17;0.10;;;0.10;;
12177;SDS011;6152;48.728;9.256;2023-11-19T06:24:43;0.10;;;0.10;;
12177;SDS011;6152;48.728;9.256;2023-11-19T06:27:09;0.10;;;0.10;;
12177;SDS011;6152;48.728;9.256;2023-11-19T06:29:35;0.98;;;0.10;;
12177;SDS011;6152;48.728;9.256;2023-11-19T06:32:01;0.00;;;0.00;;
12177;SDS011;6152;48.728;9.256;2023-11-19T06:34:28;0.10;;;0.10;;
12177;SDS011;6152;48.728;9.256;2023-11-19T06:36:54;0.32;;;0.00;;
12177;SDS011;6152;48.728;9.256;2023-11-19T06:39:20;0.00;;;0.00;;
12177;SDS011;6152;48.728;9.256;2023-11-19T06:41:46;0.22;;;0.10;;
12177;SDS011;6152;48.728;9.256;2023-11-19T06:44:12;0.98;;;0.08;;
12177;SDS011;6152;48.728;9.256;2023-11-19T06:46:39;0.65;;;0.10;;
12177;SDS011;6152;48.728;9.256;2023-11-19T06:49:05;0.45;;;0.10;;
12177;SDS011;6152;48.728;9.256;2023-11-19T06:51:33;2.00;;;0.10;;
12177;SDS011;6152;48.728;9.256;2023-11-19T06:53:59;1.25;;;0.10;;
12177;SDS011;6152;48.728;9.256;2023-11-19T06:56:25;0.93;;;0.10;;
12177;SDS011;6152;48.728;9.256;2023-11-19T06:58:52;0.10;;;0.10;;
12177;SDS011;6152;48.728;9.256;2023-11-19T07:01:18;0.10;;;0.10;;
12177;SDS011;6152;48.728;9.256;2023-11-19T07:03:45;0.50;;;0.10;;
12177;SDS011;6152;48.728;9.256;2023-11-19T07:06:12;0.08;;;0.08;;
12177;SDS011;6152;48.728;9.256;2023-11-19T07:08:39;0.08;;;0.08;;
12177;SDS011;6152;48.728;9.256;2023-11-19T07:11:12;0.10;;;0.10;;
12177;SDS011;6152;48.728;9.256;2023-11-19T07:13:42;0.10;;;0.10;;
12177;SDS011;6152;48.728;9.256;2023-11-19T07:16:08;0.20;;;0.17;;
12177;SDS011;6152;48.728;9.256;2023-11-19T07:18:38;0.10;;;0.10;;
12177;SDS011;6152;48.728;9.256;2023-11-19T07:21:04;0.25;;;0.25;;
12177;SDS011;6152;48.728;9.256;2023-11-19T07:23:30;0.10;;;0.10;;
12177;SDS011;6152;48.728;9.256;2023-11-19T07:25:58;0.38;;;0.10;;
12177;SDS011;6152;48.728;9.256;2023-11-19T07:28:24;0.10;;;0.10;;
12177;SDS011;6152;48.728;9.256;2023-11-19T07:30:50;0.32;;;0.10;;
12177;SDS011;6152;48.728;9.256;2023-11-19T07:33:16;0.10;;;0.10;;
12177;SDS011;6152;48.728;9.256;2023-11-19T07:35:42;2.42;;;0.20;;
12177;SDS011;6152;48.728;9.256;2023-11-19T07:38:09;0.10;;;0.10;;
12177;SDS011;6152;48.728;9.256;2023-11-19T07:40:35;0.55;;;0.10;;
12177;SDS011;6152;48.728;9.256;2023-11-19T07:43:01;0.10;;;0.10;;
12177;SDS011;6152;48.728;9.256;2023-11-19T07:45:27;0.10;;;0.10;;
12177;SDS011;6152;48.728;9.256;2023-11-19T07:47:53;0.40;;;0.10;;
12177;SDS011;6152;48.728;9.256;2023-11-19T07:50:19;0.63;;;0.10;;
12177;SDS011;6152;48.728;9.256;2023-11-19T07:52:46;0.17;;;0.10;;
12177;SDS011;6152;48.728;9.256;2023-11-19T07:55:12;0.63;;;0.10;;
12177;SDS011;6152;48.728;9.256;2023-11-19T07:57:38;2.08;;;0.20;;
12177;SDS011;6152;48.728;9.256;2023-11-19T08:00:04;0.73;;;0.50;;
12177;SDS011;6152;48.728;9.256;2023-11-19T08:02:31;0.85;;;0.60;;
12177;SDS011;6152;48.728;9.256;2023-11-19T08:04:58;0.20;;;0.20;;
12177;SDS011;6152;48.728;9.256;2023-11-19T08:07:24;0.30;;;0.20;;
12177;SDS011;6152;48.728;9.256;2023-11-19T08:09:50;0.20;;;0.20;;
12177;SDS011;6152;48.728;9.256;2023-11-19T08:12:16;0.20;;;0.10;;
12177;SDS011;6152;48.728;9.256;2023-11-19T08:14:42;0.20;;;0.20;;
12177;SDS011;6152;48.728;9.256;2023-11-19T08:17:09;0.28;;;0.28;;
12177;SDS011;6152;48.728;9.256;2023-11-19T08:19:35;0.65;;;0.17;;
12177;SDS011;6152;48.728;9.256;2023-11-19T08:22:01;0.93;;;0.20;;
12177;SDS011;6152;48.728;9.256;2023-11-19T08:24:28;0.20;;;0.10;;
12177;SDS011;6152;48.728;9.256;2023-11-19T08:26:54;0.73;;;0.10;;
12177;SDS011;6152;48.728;9.256;2023-11-19T08:29:20;0.10;;;0.10;;
12177;SDS011;6152;48.728;9.256;2023-11-19T08:31:46;0.10;;;0.10;;
12177;SDS011;6152;48.728;9.256;2023-11-19T08:34:12;0.20;;;0.20;;
12177;SDS011;6152;48.728;9.256;2023-11-19T08:36:38;0.10;;;0.10;;
12177;SDS011;6152;48.728;9.256;2023-11-19T08:39:04;1.88;;;0.15;;
12177;SDS011;6152;48.728;9.256;2023-11-19T08:41:30;0.57;;;0.20;;
12177;SDS011;6152;48.728;9.256;2023-11-19T08:43:56;0.90;;;0.20;;
12177;SDS011;6152;48.728;9.256;2023-11-19T08:46:23;0.28;;;0.10;;
12177;SDS011;6152;48.728;9.256;2023-11-19T08:48:50;0.20;;;0.20;;
12177;SDS011;6152;48.728;9.256;2023-11-19T08:51:16;0.10;;;0.10;;
12177;SDS011;6152;48.728;9.256;2023-11-19T08:53:42;2.63;;;0.10;;
12177;SDS011;6152;48.728;9.256;2023-11-19T08:56:08;0.20;;;0.20;;
12177;SDS011;6152;48.728;9.256;2023-11-19T08:58:34;0.65;;;0.10;;
12177;SDS011;6152;48.728;9.256;2023-11-19T09:01:01;2.28;;;0.20;;
12177;SDS011;6152;48.728;9.256;2023-11-19T09:03:27;0.25;;;0.20;;
12177;SDS011;6152;48.728;9.256;2023-11-19T09:05:56;0.20;;;0.20;;
12177;SDS011;6152;48.728;9.256;2023-11-19T09:08:22;0.95;;;0.20;;
12177;SDS011;6152;48.728;9.256;2023-11-19T09:10:48;0.10;;;0.10;;
12177;SDS011;6152;48.728;9.256;2023-11-19T09:13:14;0.38;;;0.10;;
12177;SDS011;6152;48.728;9.256;2023-11-19T09:15:40;0.40;;;0.17;;
12177;SDS011;6152;48.728;9.256;2023-11-19T09:18:07;0.50;;;0.10;;
12177;SDS011;6152;48.728;9.256;2023-11-19T09:20:33;0.17;;;0.17;;
12177;SDS011;6152;48.728;9.256;2023-11-19T09:23:03;0.10;;;0.10;;
12177;SDS011;6152;48.728;9.256;2023-11-19T09:25:30;0.20;;;0.20;;
12177;SDS011;6152;48.728;9.256;2023-11-19T09:27:56;0.10;;;0.10;;
12177;SDS011;6152;48.728;9.256;2023-11-19T09:30:22;0.10;;;0.10;;
12177;SDS011;6152;48.728;9.256;2023-11-19T09:32:48;0.10;;;0.10;;
12177;SDS011;6152;48.728;9.256;2023-11-19T09:35:15;1.65;;;0.20;;
12177;SDS011;6152;48.728;9.256;2023-11-19T09:37:41;0.17;;;0.10;;
12177;SDS011;6152;48.728;9.256;2023-11-19T09:40:08;0.10;;;0.10;;
12177;SDS011;6152;48.728;9.256;2023-11-19T09:42:44;0.30;;;0.10;;
12177;SDS011;6152;48.728;9.256;2023-11-19T09:45:15;0.10;;;0.00;;
12177;SDS011;6152;48.728;9.256;2023-11-19T09:47:43;0.30;;;0.20;;
12177;SDS011;6152;48.728;9.256;2023-11-19T09:50:17;0.10;;;0.10;;
12177;SDS011;6152;48.728;9.256;2023-11-19T09:52:45;0.20;;;0.10;;
12177;SDS011;6152;48.728;9.256;2023-11-19T09:55:12;1.77;;;0.47;;
12177;SDS011;6152;48.728;9.256;2023-11-19T09:57:39;0.30;;;0.10;;
12177;SDS011;6152;48.728;9.256;2023-11-19T10:00:07;0.30;;;0.17;;
12177;SDS011;6152;48.728;9.256;2023-11-19T10:02:35;0.20;;;0.20;;
12177;SDS011;6152;48.728;9.256;2023-11-19T10:05:04;0.20;;;0.20;;
12177;SDS011;6152;48.728;9.256;2023-11-19T10:07:32;0.15;;;0.10;;
12177;SDS011;6152;48.728;9.256;2023-11-19T10:09:59;0.35;;;0.20;;
12177;SDS011;6152;48.728;9.256;2023-11-19T10:12:27;0.30;;;0.10;;
12177;SDS011;6152;48.728;9.256;2023-11-19T10:14:54;0.10;;;0.10;;
12177;SDS011;6152;48.728;9.256;2023-11-19T10:17:27;0.10;;;0.10;;
12177;SDS011;6152;48.728;9.256;2023-11-19T10:19:54;0.77;;;0.10;;
12177;SDS011;6152;48.728;9.256;2023-11-19T10:22:22;0.28;;;0.20;;
12177;SDS011;6152;48.728;9.256;2023-11-19T10:24:49;0.30;;;0.00;;
12177;SDS011;6152;48.728;9.256;2023-11-19T10:27:15;0.10;;;0.10;;
12177;SDS011;6152;48.728;9.256;2023-11-19T10:29:44;0.47;;;0.20;;
12177;SDS011;6152;48.728;9.256;2023-11-19T10:32:12;0.10;;;0.10;;
12177;SDS011;6152;48.728;9.256;2023-11-19T10:34:39;0.17;;;0.13;;
12177;SDS011;6152;48.728;9.256;2023-11-19T10:37:06;1.33;;;0.10;;
12177;SDS011;6152;48.728;9.256;2023-11-19T10:39:51;0.85;;;0.10;;
12177;SDS011;6152;48.728;9.256;2023-11-19T10:42:19;1.15;;;0.10;;
12177;SDS011;6152;48.728;9.256;2023-11-19T10:44:46;0.40;;;0.20;;
12177;SDS011;6152;48.728;9.256;2023-11-19T10:47:13;0.30;;;0.17;;
12177;SDS011;6152;48.728;9.256;2023-11-19T10:49:42;0.30;;;0.30;;
12177;SDS011;6152;48.728;9.256;2023-11-19T10:52:09;0.25;;;0.10;;
12177;SDS011;6152;48.728;9.256;2023-11-19T10:54:35;4.30;;;0.20;;
12177;SDS011;6152;48.728;9.256;2023-11-19T10:57:02;1.00;;;0.25;;
12177;SDS011;6152;48.728;9.256;2023-11-19T10:59:31;1.58;;;0.20;;
12177;SDS011;6152;48.728;9.256;2023-11-19T11:01:57;0.10;;;0.10;;
12177;SDS011;6152;48.728;9.256;2023-11-19T11:04:30;0.03;;;0.03;;
12177;SDS011;6152;48.728;9.256;2023-11-19T11:07:00;1.67;;;0.10;;
12177;SDS011;6152;48.728;9.256;2023-11-19T11:09:27;0.85;;;0.13;;
12177;SDS011;6152;48.728;9.256;2023-11-19T11:11:55;0.68;;;0.10;;
12177;SDS011;6152;48.728;9.256;2023-11-19T11:14:22;0.22;;;0.10;;
12177;SDS011;6152;48.728;9.256;2023-11-19T11:16:50;0.10;;;0.10;;
12177;SDS011;6152;48.728;9.256;2023-11-19T11:19:18;0.20;;;0.20;;
12177;SDS011;6152;48.728;9.256;2023-11-19T11:21:46;0.30;;;0.10;;
12177;SDS011;6152;48.728;9.256;2023-11-19T11:24:22;0.47;;;0.10;;
12177;SDS011;6152;48.728;9.256;2023-11-19T11:29:41;0.55;;;0.10;;
12177;SDS011;6152;48.728;9.256;2023-11-19T11:37:44;0.10;;;0.10;;
12177;SDS011;6152;48.728;9.256;2023-11-19T11:40:14;0.10;;;0.10;;
12177;SDS011;6152;48.728;9.256;2023-11-19T11:42:43;2.00;;;0.17;;
12177;SDS011;6152;48.728;9.256;2023-11-19T11:45:10;0.25;;;0.17;;
12177;SDS011;6152;48.728;9.256;2023-11-19T11:50:19;0.30;;;0.20;;
12177;SDS011;6152;48.728;9.256;2023-11-19T11:55:24;3.00;;;0.32;;
12177;SDS011;6152;48.728;9.256;2023-11-19T11:57:50;0.50;;;0.20;;
12177;SDS011;6152;48.728;9.256;2023-11-19T12:03:02;0.28;;;0.20;;
12177;SDS011;6152;48.728;9.256;2023-11-19T12:05:30;0.10;;;0.10;;
12177;SDS011;6152;48.728;9.256;2023-11-19T12:08:03;0.90;;;0.10;;
12177;SDS011;6152;48.728;9.256;2023-11-19T12:10:49;0.17;;;0.13;;
12177;SDS011;6152;48.728;9.256;2023-11-19T12:13:17;1.38;;;0.10;;
12177;SDS011;6152;48.728;9.256;2023-11-19T12:20:52;1.02;;;0.20;;
12177;SDS011;6152;48.728;9.256;2023-11-19T12:23:19;0.40;;;0.10;;
12177;SDS011;6152;48.728;9.256;2023-11-19T12:25:45;0.85;;;0.20;;
12177;SDS011;6152;48.728;9.256;2023-11-19T12:28:12;0.20;;;0.20;;
12177;SDS011;6152;48.728;9.256;2023-11-19T12:30:39;0.35;;;0.13;;
12177;SDS011;6152;48.728;9.256;2023-11-19T12:33:08;0.77;;;0.10;;
12177;SDS011;6152;48.728;9.256;2023-11-19T12:35:53;0.70;;;0.20;;
12177;SDS011;6152;48.728;9.256;2023-11-19T12:38:20;0.52;;;0.10;;
12177;SDS011;6152;48.728;9.256;2023-11-19T12:43:49;0.22;;;0.10;;
12177;SDS011;6152;48.728;9.256;2023-11-19T12:46:19;0.85;;;0.10;;
12177;SDS011;6152;48.728;9.256;2023-11-19T12:48:46;0.73;;;0.20;;
12177;SDS011;6152;48.728;9.256;2023-11-19T12:51:16;1.20;;;0.10;;
12177;SDS011;6152;48.728;9.256;2023-11-19T12:53:49;0.63;;;0.17;;
12177;SDS011;6152;48.728;9.256;2023-11-19T12:56:19;1.35;;;0.28;;
12177;SDS011;6152;48.728;9.256;2023-11-19T12:58:46;0.43;;;0.15;;
12177;SDS011;6152;48.728;9.256;2023-11-19T13:01:15;0.10;;;0.10;;
12177;SDS011;6152;48.728;9.256;2023-11-19T13:03:43;0.25;;;0.20;;
12177;SDS011;6152;48.728;9.256;2023-11-19T13:06:10;0.32;;;0.20;;
12177;SDS011;6152;48.728;9.256;2023-11-19T13:11:04;0.38;;;0.20;;
12177;SDS011;6152;48.728;9.256;2023-11-19T13:13:31;0.52;;;0.17;;
12177;SDS011;6152;48.728;9.256;2023-11-19T13:16:04;1.45;;;0.20;;
12177;SDS011;6152;48.728;9.256;2023-11-19T13:18:31;0.45;;;0.20;;
12177;SDS011;6152;48.728;9.256;2023-11-19T13:20:57;0.82;;;0.30;;
12177;SDS011;6152;48.728;9.256;2023-11-19T13:23:23;0.60;;;0.20;;
12177;SDS011;6152;48.728;9.256;2023-11-19T13:25:49;2.15;;;0.20;;
12177;SDS011;6152;48.728;9.256;2023-11-19T13:28:15;2.05;;;0.10;;
12177;SDS011;6152;48.728;9.256;2023-11-19T13:30:41;3.47;;;0.20;;
12177;SDS011;6152;48.728;9.256;2023-11-19T13:33:07;0.20;;;0.15;;
12177;SDS011;6152;48.728;9.256;2023-11-19T13:35:37;0.30;;;0.20;;
12177;SDS011;6152;48.728;9.256;2023-11-19T13:38:05;0.20;;;0.15;;
12177;SDS011;6152;48.728;9.256;2023-11-19T13:40:33;1.17;;;0.10;;
12177;SDS011;6152;48.728;9.256;2023-11-19T13:43:00;2.42;;;0.28;;
12177;SDS011;6152;48.728;9.256;2023-11-19T13:45:26;0.10;;;0.10;;
12177;SDS011;6152;48.728;9.256;2023-11-19T13:47:52;0.17;;;0.10;;
12177;SDS011;6152;48.728;9.256;2023-11-19T13:50:18;1.10;;;0.30;;
12177;SDS011;6152;48.728;9.256;2023-11-19T13:52:45;0.47;;;0.17;;
12177;SDS011;6152;48.728;9.256;2023-11-19T13:55:12;0.28;;;0.10;;
12177;SDS011;6152;48.728;9.256;2023-11-19T13:57:39;0.50;;;0.10;;
12177;SDS011;6152;48.728;9.256;2023-11-19T14:00:08;0.77;;;0.20;;
12177;SDS011;6152;48.728;9.256;2023-11-19T14:02:38;0.70;;;0.20;;
12177;SDS011;6152;48.728;9.256;2023-11-19T14:05:05;0.63;;;0.20;;
12177;SDS011;6152;48.728;9.256;2023-11-19T14:07:32;1.77;;;0.17;;
12177;SDS011;6152;48.728;9.256;2023-11-19T14:09:58;1.40;;;0.28;;
12177;SDS011;6152;48.728;9.256;2023-11-19T14:12:24;0.32;;;0.22;;
12177;SDS011;6152;48.728;9.256;2023-11-19T14:14:51;0.80;;;0.30;;
12177;SDS011;6152;48.728;9.256;2023-11-19T14:17:17;1.30;;;0.20;;
12177;SDS011;6152;48.728;9.256;2023-11-19T14:19:43;0.88;;;0.30;;
12177;SDS011;6152;48.728;9.256;2023-11-19T14:22:10;0.20;;;0.10;;
12177;SDS011;6152;48.728;9.256;2023-11-19T14:24:36;0.10;;;0.10;;
12177;SDS011;6152;48.728;9.256;2023-11-19T14:27:03;0.63;;;0.22;;
12177;SDS011;6152;48.728;9.256;2023-11-19T14:29:29;0.52;;;0.20;;
12177;SDS011;6152;48.728;9.256;2023-11-19T14:31:55;1.95;;;0.20;;
12177;SDS011;6152;48.728;9.256;2023-11-19T14:34:22;1.35;;;0.13;;
12177;SDS011;6152;48.728;9.256;2023-11-19T14:36:48;0.20;;;0.20;;
12177;SDS011;6152;48.728;9.256;2023-11-19T14:39:14;0.10;;;0.10;;
12177;SDS011;6152;48.728;9.256;2023-11-19T14:41:42;0.40;;;0.20;;
12177;SDS011;6152;48.728;9.256;2023-11-19T14:44:09;1.52;;;0.20;;
12177;SDS011;6152;48.728;9.256;2023-11-19T14:46:35;0.22;;;0.10;;
12177;SDS011;6152;48.728;9.256;2023-11-19T14:49:02;0.47;;;0.15;;
12177;SDS011;6152;48.728;9.256;2023-11-19T14:51:32;0.30;;;0.30;;
12177;SDS011;6152;48.728;9.256;2023-11-19T14:54:02;1.00;;;0.10;;
12177;SDS011;6152;48.728;9.256;2023-11-19T14:56:32;0.30;;;0.30;;
12177;SDS011;6152;48.728;9.256;2023-11-19T14:58:58;0.63;;;0.20;;
12177;SDS011;6152;48.728;9.256;2023-11-19T15:01:24;0.32;;;0.20;;
12177;SDS011;6152;48.728;9.256;2023-11-19T15:03:52;0.88;;;0.20;;
12177;SDS011;6152;48.728;9.256;2023-11-19T15:06:18;1.35;;;0.30;;
12177;SDS011;6152;48.728;9.256;2023-11-19T15:08:47;1.30;;;0.20;;
12177;SDS011;6152;48.728;9.256;2023-11-19T15:11:13;0.60;;;0.20;;
12177;SDS011;6152;48.728;9.256;2023-11-19T15:13:39;0.22;;;0.20;;
12177;SDS011;6152;48.728;9.256;2023-11-19T15:16:07;0.22;;;0.10;;
12177;SDS011;6152;48.728;9.256;2023-11-19T15:18:36;0.75;;;0.30;;
12177;SDS011;6152;48.728;9.256;2023-11-19T15:21:03;0.20;;;0.10;;
12177;SDS011;6152;48.728;9.256;2023-11-19T15:23:29;0.25;;;0.20;;
12177;SDS011;6152;48.728;9.256;2023-11-19T15:25:55;0.35;;;0.20;;
12177;SDS011;6152;48.728;9.256;2023-11-19T15:28:21;0.35;;;0.25;;